Time;durP1;ratioP1;P1;durP2;ratioP2;P2;SDS_P1;SDS_P2;PMS_P1;PMS_P2;Temp;Humidity;BMP_temperature;BMP_pressure;BME280_temperature;BME280_humidity;BME280_pressure;Samples;Min_cycle;Max_cycle;Signal;HPM_P1;HPM_P2
2021/08/14 00:01:20;;;;;;;;;;;;;;;;;;5086634;28;1514;-85
2021/08/14 00:03:45;;;;;;;;;;;;;;;;;;5085917;28;1238;-86
2021/08/14 00:06:12;;;;;;;;;;;;;;;;;;5088137;28;1408;-85
2021/08/14 00:08:37;;;;;;;;;;;;;;;;;;5088972;28;1320;-85
2021/08/14 00:11:03;;;;;;;;;;;;;;;;;;5089817;28;1594;-85
2021/08/14 00:13:28;;;;;;;;;;;;;;;;;;5089894;28;1973;-85
2021/08/14 00:15:53;;;;;;;;;;;;;;;;;;5091144;28;1224;-85
2021/08/14 00:18:19;;;;;;;;;;;;;;;;;;5089910;28;1274;-85
2021/08/14 00:20:44;;;;;;;;;;;;;;;;;;5091494;28;1653;-85
2021/08/14 00:23:09;;;;;;;;;;;;;;;;;;5088579;28;1284;-85
2021/08/14 00:25:34;;;;;;;;;;;;;;;;;;5092457;28;1206;-85
2021/08/14 00:28:00;;;;;;;;;;;;;;;;;;5088080;28;1762;-85
2021/08/14 00:30:25;;;;;;;;;;;;;;;;;;5092959;28;1127;-85
2021/08/14 00:32:51;;;;;;;;;;;;;;;;;;5093578;28;1907;-86
2021/08/14 00:35:17;;;;;;;;;;;;;;;;;;5085973;28;1579;-85
2021/08/14 00:37:42;;;;;;;;;;;;;;;;;;5089294;28;1431;-85
2021/08/14 00:40:07;;;;;;;;;;;;;;;;;;5088314;28;1249;-85
2021/08/14 00:42:32;;;;;;;;;;;;;;;;;;5089183;28;1630;-85
2021/08/14 00:44:58;;;;;;;;;;;;;;;;;;5112740;28;1223;-85
2021/08/14 00:47:26;;;;;;;;;;;;;;;;;;5113308;28;1289;-85
2021/08/14 00:49:52;;;;;;;;;;;;;;;;;;5092200;28;1354;-85
2021/08/14 00:52:17;;;;;;;;;;;;;;;;;;5090887;28;1971;-85
2021/08/14 00:54:42;;;;;;;;;;;;;;;;;;5089566;28;1171;-85
2021/08/14 00:57:08;;;;;;;;;;;;;;;;;;5088028;28;1617;-85
2021/08/14 00:59:33;;;;;;;;;;;;;;;;;;5083311;28;1596;-85
2021/08/14 01:01:59;;;;;;;;;;;;;;;;;;5082177;28;1471;-86
2021/08/14 01:04:24;;;;;;;;;;;;;;;;;;5084968;28;1037;-85
2021/08/14 01:06:50;;;;;;;;;;;;;;;;;;5089920;28;1543;-85
2021/08/14 01:09:15;;;;;;;;;;;;;;;;;;5086572;28;1336;-85
2021/08/14 01:11:40;;;;;;;;;;;;;;;;;;5089524;28;1909;-85
2021/08/14 01:14:06;;;;;;;;;;;;;;;;;;5091957;28;1004;-85
2021/08/14 01:16:31;;;;;;;;;;;;;;;;;;5086467;28;1530;-86
2021/08/14 01:18:56;;;;;;;;;;;;;;;;;;5089202;28;1380;-86
2021/08/14 01:21:22;;;;;;;;;;;;;;;;;;5086992;28;1557;-85
2021/08/14 01:23:48;;;;;;;;;;;;;;;;;;5088159;28;1628;-85
2021/08/14 01:26:13;;;;;;;;;;;;;;;;;;5091631;28;1253;-85
2021/08/14 01:28:38;;;;;;;;;;;;;;;;;;5089486;28;1574;-85
2021/08/14 01:31:04;;;;;;;;;;;;;;;;;;5091599;28;1048;-85
2021/08/14 01:33:30;;;;;;;;;;;;;;;;;;5091375;28;1973;-85
2021/08/14 01:35:55;;;;;;;;;;;;;;;;;;5091140;28;1492;-85
2021/08/14 01:38:20;;;;;;;;;;;;;;;;;;5089820;28;1594;-85
2021/08/14 01:40:45;;;;;;;;;;;;;;;;;;5088641;28;2056;-85
2021/08/14 01:43:11;;;;;;;;;;;;;;;;;;5091345;28;1626;-85
2021/08/14 01:45:39;;;;;;;;;;;;;;;;;;5088200;28;1171;-85
2021/08/14 01:48:05;;;;;;;;;;;;;;;;;;5089620;28;1230;-85
2021/08/14 01:50:30;;;;;;;;;;;;;;;;;;5090328;28;1644;-85
2021/08/14 01:52:55;;;;;;;;;;;;;;;;;;5089639;28;1965;-86
2021/08/14 01:55:20;;;;;;;;;;;;;;;;;;5091186;28;1156;-85
2021/08/14 01:57:46;;;;;;;;;;;;;;;;;;5088887;28;1598;-85
2021/08/14 02:00:11;;;;;;;;;;;;;;;;;;5087126;28;1199;-85
2021/08/14 02:02:36;;;;;;;;;;;;;;;;;;5089393;28;1202;-85
2021/08/14 02:05:01;;;;;;;;;;;;;;;;;;5089155;28;1511;-86
2021/08/14 02:07:27;;;;;;;;;;;;;;;;;;5083490;28;1299;-85
2021/08/14 02:09:52;;;;;;;;;;;;;;;;;;5086619;28;1128;-85
2021/08/14 02:12:17;;;;;;;;;;;;;;;;;;5087074;28;1977;-85
2021/08/14 02:14:42;;;;;;;;;;;;;;;;;;5087067;28;1424;-85
2021/08/14 02:17:07;;;;;;;;;;;;;;;;;;5086475;28;1016;-85
2021/08/14 02:19:33;;;;;;;;;;;;;;;;;;5088782;28;1219;-85
2021/08/14 02:21:58;;;;;;;;;;;;;;;;;;5085858;28;1534;-85
2021/08/14 02:24:23;;;;;;;;;;;;;;;;;;5083729;28;1746;-85
2021/08/14 02:26:48;;;;;;;;;;;;;;;;;;5086316;28;1814;-85
2021/08/14 02:29:13;;;;;;;;;;;;;;;;;;5086530;28;1440;-85
2021/08/14 02:31:38;;;;;;;;;;;;;;;;;;5090481;28;1942;-85
2021/08/14 02:34:04;;;;;;;;;;;;;;;;;;5087465;28;1301;-85
2021/08/14 02:36:29;;;;;;;;;;;;;;;;;;5085819;28;1554;-85
2021/08/14 02:38:54;;;;;;;;;;;;;;;;;;5088760;28;1369;-85
2021/08/14 02:41:19;;;;;;;;;;;;;;;;;;5105280;28;1222;-85
2021/08/14 02:43:44;;;;;;;;;;;;;;;;;;5085052;28;1568;-85
2021/08/14 02:46:09;;;;;;;;;;;;;;;;;;5090850;28;1123;-85
2021/08/14 02:48:35;;;;;;;;;;;;;;;;;;5089233;28;1420;-85
2021/08/14 02:51:00;;;;;;;;;;;;;;;;;;5085759;28;1042;-85
2021/08/14 02:53:25;;;;;;;;;;;;;;;;;;5089811;28;1973;-85
2021/08/14 02:55:50;;;;;;;;;;;;;;;;;;5090329;28;1108;-85
2021/08/14 02:58:15;;;;;;;;;;;;;;;;;;5086985;28;1671;-85
2021/08/14 03:00:41;;;;;;;;;;;;;;;;;;5089141;28;1128;-85
2021/08/14 03:03:06;;;;;;;;;;;;;;;;;;5089464;28;1484;-85
2021/08/14 03:05:31;;;;;;;;;;;;;;;;;;5090115;28;1183;-85
2021/08/14 03:07:56;;;;;;;;;;;;;;;;;;5083686;28;1489;-85
2021/08/14 03:10:21;;;;;;;;;;;;;;;;;;5086449;28;1167;-85
2021/08/14 03:12:47;;;;;;;;;;;;;;;;;;5086019;28;1898;-86
2021/08/14 03:15:12;;;;;;;;;;;;;;;;;;5088018;28;1268;-85
2021/08/14 03:17:37;;;;;;;;;;;;;;;;;;5086841;28;1399;-85
2021/08/14 03:20:03;;;;;;;;;;;;;;;;;;5084267;28;1605;-85
2021/08/14 03:22:28;;;;;;;;;;;;;;;;;;5087067;28;1175;-85
2021/08/14 03:24:53;;;;;;;;;;;;;;;;;;5086687;28;1196;-85
2021/08/14 03:27:18;;;;;;;;;;;;;;;;;;5089363;28;1658;-85
2021/08/14 03:29:43;;;;;;;;;;;;;;;;;;5084438;28;1542;-85
2021/08/14 03:32:08;;;;;;;;;;;;;;;;;;5086856;28;1898;-85
2021/08/14 03:34:34;;;;;;;;;;;;;;;;;;5089463;28;1223;-85
2021/08/14 03:36:59;;;;;;;;;;;;;;;;;;5089228;28;1637;-85
2021/08/14 03:39:24;;;;;;;;;;;;;;;;;;5086797;28;1812;-85
2021/08/14 03:41:49;;;;;;;;;;;;;;;;;;5086550;28;1554;-85
2021/08/14 03:44:14;;;;;;;;;;;;;;;;;;5088942;28;1225;-85
2021/08/14 03:46:39;;;;;;;;;;;;;;;;;;5089105;28;1333;-85
2021/08/14 03:49:05;;;;;;;;;;;;;;;;;;5084645;28;1413;-85
2021/08/14 03:51:30;;;;;;;;;;;;;;;;;;5083340;28;1919;-85
2021/08/14 03:53:55;;;;;;;;;;;;;;;;;;5089248;28;1576;-85
2021/08/14 03:56:20;;;;;;;;;;;;;;;;;;5089729;28;1128;-85
2021/08/14 03:58:45;;;;;;;;;;;;;;;;;;5043875;28;1538;-85
2021/08/14 04:01:11;;;;;;;;;;;;;;;;;;5083593;28;1247;-85
2021/08/14 04:03:36;;;;;;;;;;;;;;;;;;5088547;28;1112;-85
2021/08/14 04:06:01;;;;;;;;;;;;;;;;;;5089261;28;1161;-85
2021/08/14 04:08:26;;;;;;;;;;;;;;;;;;5084745;28;1591;-85
2021/08/14 04:10:51;;;;;;;;;;;;;;;;;;5085250;28;1233;-85
2021/08/14 04:13:17;;;;;;;;;;;;;;;;;;5083390;28;1976;-85
2021/08/14 04:15:42;;;;;;;;;;;;;;;;;;5086208;28;1187;-85
2021/08/14 04:18:07;;;;;;;;;;;;;;;;;;5086170;28;1274;-85
2021/08/14 04:20:32;;;;;;;;;;;;;;;;;;5083838;28;1646;-85
2021/08/14 04:22:58;;;;;;;;;;;;;;;;;;5086383;28;1603;-85
2021/08/14 04:25:23;;;;;;;;;;;;;;;;;;5082470;28;1609;-86
2021/08/14 04:27:48;;;;;;;;;;;;;;;;;;5085433;28;1548;-85
2021/08/14 04:30:13;;;;;;;;;;;;;;;;;;5088538;28;1396;-85
2021/08/14 04:32:38;;;;;;;;;;;;;;;;;;5089540;28;1898;-85
2021/08/14 04:35:07;;;;;;;;;;;;;;;;;;5085596;28;1543;-85
2021/08/14 04:37:32;;;;;;;;;;;;;;;;;;5085400;28;1305;-85
2021/08/14 04:39:58;;;;;;;;;;;;;;;;;;5088066;28;1849;-85
2021/08/14 04:42:23;;;;;;;;;;;;;;;;;;5086522;28;1507;-85
2021/08/14 04:44:48;;;;;;;;;;;;;;;;;;5086152;28;1210;-85
2021/08/14 04:47:13;;;;;;;;;;;;;;;;;;5085473;28;1346;-86
2021/08/14 04:49:38;;;;;;;;;;;;;;;;;;5085344;28;1293;-86
2021/08/14 04:52:04;;;;;;;;;;;;;;;;;;5084958;28;1894;-85
2021/08/14 04:54:29;;;;;;;;;;;;;;;;;;5089867;28;1361;-85
2021/08/14 04:56:54;;;;;;;;;;;;;;;;;;5088472;28;1510;-85
2021/08/14 04:59:19;;;;;;;;;;;;;;;;;;5089712;28;2017;-85
2021/08/14 05:01:44;;;;;;;;;;;;;;;;;;5090277;28;1423;-85
2021/08/14 05:04:09;;;;;;;;;;;;;;;;;;5087324;28;1152;-85
2021/08/14 05:06:37;;;;;;;;;;;;;;;;;;5089399;28;1315;-85
2021/08/14 05:09:02;;;;;;;;;;;;;;;;;;5087885;28;1607;-85
2021/08/14 05:11:27;;;;;;;;;;;;;;;;;;5091034;28;1978;-85
2021/08/14 05:13:52;;;;;;;;;;;;;;;;;;5090020;28;1649;-85
2021/08/14 05:16:18;;;;;;;;;;;;;;;;;;5091123;28;1285;-85
2021/08/14 05:18:44;;;;;;;;;;;;;;;;;;5090564;28;1825;-85
2021/08/14 05:21:09;;;;;;;;;;;;;;;;;;5090743;28;1614;-85
2021/08/14 05:23:34;;;;;;;;;;;;;;;;;;5088322;28;1519;-85
2021/08/14 05:25:59;;;;;;;;;;;;;;;;;;5086734;28;1175;-85
2021/08/14 05:28:24;;;;;;;;;;;;;;;;;;5089544;28;1582;-85
2021/08/14 05:30:49;;;;;;;;;;;;;;;;;;5091785;28;1104;-85
2021/08/14 05:33:15;;;;;;;;;;;;;;;;;;5089376;28;1902;-85
2021/08/14 05:35:40;;;;;;;;;;;;;;;;;;5088674;28;1551;-86
2021/08/14 05:38:05;;;;;;;;;;;;;;;;;;5089922;28;1273;-85
2021/08/14 05:40:30;;;;;;;;;;;;;;;;;;5092284;28;1297;-85
2021/08/14 05:42:55;;;;;;;;;;;;;;;;;;5089888;28;1547;-85
2021/08/14 05:45:21;;;;;;;;;;;;;;;;;;5087904;28;1559;-85
2021/08/14 05:47:46;;;;;;;;;;;;;;;;;;5087841;28;1356;-85
2021/08/14 05:50:11;;;;;;;;;;;;;;;;;;5085705;28;1609;-85
2021/08/14 05:52:36;;;;;;;;;;;;;;;;;;5088224;28;1971;-85
2021/08/14 05:55:01;;;;;;;;;;;;;;;;;;5087217;28;1254;-85
2021/08/14 05:57:27;;;;;;;;;;;;;;;;;;5088441;28;1562;-85
2021/08/14 05:59:52;;;;;;;;;;;;;;;;;;5090094;28;1755;-85
2021/08/14 06:02:17;;;;;;;;;;;;;;;;;;5091152;28;1143;-85
2021/08/14 06:04:42;;;;;;;;;;;;;;;;;;5087917;28;1535;-86
2021/08/14 06:07:07;;;;;;;;;;;;;;;;;;5090022;28;1171;-85
2021/08/14 06:09:33;;;;;;;;;;;;;;;;;;5091074;28;1309;-85
2021/08/14 06:11:59;;;;;;;;;;;;;;;;;;5086427;28;1976;-85
2021/08/14 06:14:24;;;;;;;;;;;;;;;;;;5090074;28;1301;-85
2021/08/14 06:16:50;;;;;;;;;;;;;;;;;;5085534;28;1809;-85
2021/08/14 06:19:15;;;;;;;;;;;;;;;;;;5086766;28;1342;-85
2021/08/14 06:21:40;;;;;;;;;;;;;;;;;;5086998;28;1611;-86
2021/08/14 06:24:05;;;;;;;;;;;;;;;;;;5086796;28;1279;-85
2021/08/14 06:26:30;;;;;;;;;;;;;;;;;;5089304;28;1167;-85
2021/08/14 06:28:55;;;;;;;;;;;;;;;;;;5085709;28;1618;-85
2021/08/14 06:31:21;;;;;;;;;;;;;;;;;;5105491;28;1468;-85
2021/08/14 06:33:46;;;;;;;;;;;;;;;;;;5085199;28;1905;-85
2021/08/14 06:36:12;;;;;;;;;;;;;;;;;;5087819;28;1164;-85
2021/08/14 06:38:37;;;;;;;;;;;;;;;;;;5088148;28;1462;-85
2021/08/14 06:41:02;;;;;;;;;;;;;;;;;;5087086;28;1076;-85
2021/08/14 06:43:28;;;;;;;;;;;;;;;;;;5088915;28;1538;-85
2021/08/14 06:45:53;;;;;;;;;;;;;;;;;;5090687;28;1128;-85
2021/08/14 06:48:18;;;;;;;;;;;;;;;;;;5089699;28;1433;-86
2021/08/14 06:50:43;;;;;;;;;;;;;;;;;;5090614;28;1183;-86
2021/08/14 06:53:08;;;;;;;;;;;;;;;;;;5086971;28;1969;-85
2021/08/14 06:55:34;;;;;;;;;;;;;;;;;;5084011;28;1707;-85
2021/08/14 06:57:59;;;;;;;;;;;;;;;;;;5086598;28;1598;-85
2021/08/14 07:00:24;;;;;;;;;;;;;;;;;;5087867;28;1120;-85
2021/08/14 07:02:49;;;;;;;;;;;;;;;;;;5088792;28;1043;-85
2021/08/14 07:05:14;;;;;;;;;;;;;;;;;;5084066;28;1534;-85
2021/08/14 07:07:40;;;;;;;;;;;;;;;;;;5088019;28;1262;-85
2021/08/14 07:10:05;;;;;;;;;;;;;;;;;;5086378;28;1241;-85
2021/08/14 07:12:30;;;;;;;;;;;;;;;;;;5086870;28;1965;-87
2021/08/14 07:14:55;;;;;;;;;;;;;;;;;;5085177;28;1477;-87
2021/08/14 07:17:21;;;;;;;;;;;;;;;;;;5070102;28;1395;-86
2021/08/14 07:19:46;;;;;;;;;;;;;;;;;;5084820;28;1223;-87
2021/08/14 07:22:11;;;;;;;;;;;;;;;;;;5087105;28;1625;-87
2021/08/14 07:24:36;;;;;;;;;;;;;;;;;;5088112;28;992;-87
2021/08/14 07:27:01;;;;;;;;;;;;;;;;;;5087287;28;1590;-87
2021/08/14 07:29:27;;;;;;;;;;;;;;;;;;5087693;28;1241;-87
2021/08/14 07:31:52;;;;;;;;;;;;;;;;;;5086938;28;1910;-87
2021/08/14 07:34:17;;;;;;;;;;;;;;;;;;5087133;28;1639;-87
2021/08/14 07:36:42;;;;;;;;;;;;;;;;;;5088560;28;1558;-87
2021/08/14 07:39:07;;;;;;;;;;;;;;;;;;5086554;28;1407;-87
2021/08/14 07:41:32;;;;;;;;;;;;;;;;;;5086875;28;1092;-87
2021/08/14 07:43:58;;;;;;;;;;;;;;;;;;5085394;28;1491;-87
2021/08/14 07:46:23;;;;;;;;;;;;;;;;;;5084809;28;1121;-87
2021/08/14 07:48:48;;;;;;;;;;;;;;;;;;5088642;28;1313;-87
2021/08/14 07:51:13;;;;;;;;;;;;;;;;;;5083295;28;1514;-86
2021/08/14 07:53:38;;;;;;;;;;;;;;;;;;5089249;28;1902;-87
2021/08/14 07:56:03;;;;;;;;;;;;;;;;;;5090552;28;1179;-87
2021/08/14 07:58:29;;;;;;;;;;;;;;;;;;5085305;28;2166;-86
2021/08/14 08:00:54;;;;;;;;;;;;;;;;;;5080308;28;1533;-87
2021/08/14 08:03:19;;;;;;;;;;;;;;;;;;5084927;28;1041;-87
2021/08/14 08:05:45;;;;;;;;;;;;;;;;;;5087594;28;1180;-88
2021/08/14 08:08:10;;;;;;;;;;;;;;;;;;5086427;28;1293;-86
2021/08/14 08:10:36;;;;;;;;;;;;;;;;;;5085577;28;1553;-87
2021/08/14 08:13:01;;;;;;;;;;;;;;;;;;5087797;28;1969;-86
2021/08/14 08:15:26;;;;;;;;;;;;;;;;;;5086667;28;1236;-86
2021/08/14 08:17:51;;;;;;;;;;;;;;;;;;5107991;28;1255;-88
2021/08/14 08:20:16;;;;;;;;;;;;;;;;;;5111125;28;1452;-87
2021/08/14 08:22:42;;;;;;;;;;;;;;;;;;5085994;28;1605;-87
2021/08/14 08:25:07;;;;;;;;;;;;;;;;;;5086028;28;1083;-86
2021/08/14 08:27:32;;;;;;;;;;;;;;;;;;5087180;28;1693;-87
2021/08/14 08:29:58;;;;;;;;;;;;;;;;;;5088992;28;1360;-87
2021/08/14 08:32:23;;;;;;;;;;;;;;;;;;5090775;28;1922;-87
2021/08/14 08:34:48;;;;;;;;;;;;;;;;;;5089542;28;1508;-87
2021/08/14 08:37:13;;;;;;;;;;;;;;;;;;5087343;28;1593;-86
2021/08/14 08:39:38;;;;;;;;;;;;;;;;;;5092761;28;1171;-87
2021/08/14 08:42:05;;;;;;;;;;;;;;;;;;5088433;28;1569;-87
2021/08/14 08:44:30;;;;;;;;;;;;;;;;;;5089158;28;1208;-86
2021/08/14 08:46:55;;;;;;;;;;;;;;;;;;5089716;28;1180;-87
2021/08/14 08:49:21;;;;;;;;;;;;;;;;;;5089838;28;1582;-87
2021/08/14 08:51:46;;;;;;;;;;;;;;;;;;5090891;28;1989;-87
2021/08/14 08:54:12;;;;;;;;;;;;;;;;;;5072947;28;1482;-86
2021/08/14 08:56:37;;;;;;;;;;;;;;;;;;5089753;28;1299;-87
2021/08/14 08:59:02;;;;;;;;;;;;;;;;;;5088138;28;1815;-87
2021/08/14 09:01:27;;;;;;;;;;;;;;;;;;5089155;28;1163;-87
2021/08/14 09:03:52;;;;;;;;;;;;;;;;;;5090521;28;1358;-87
2021/08/14 09:06:19;;;;;;;;;;;;;;;;;;5091813;28;1531;-87
2021/08/14 09:09:03;;;;;;;;;;;;;;;;;;5089464;28;1487;-87
2021/08/14 09:11:28;;;;;;;;;;;;;;;;;;5089078;28;1152;-87
2021/08/14 09:14:04;;;;;;;;;;;;;;;;;;5088037;28;1894;-87
2021/08/14 09:16:29;;;;;;;;;;;;;;;;;;5087589;28;1267;-86
2021/08/14 09:18:55;;;;;;;;;;;;;;;;;;5090884;28;1349;-87
2021/08/14 09:21:30;;;;;;;;;;;;;;;;;;5091317;28;1542;-87
2021/08/14 09:23:55;;;;;;;;;;;;;;;;;;5086993;28;1409;-87
2021/08/14 09:26:20;;;;;;;;;;;;;;;;;;5088015;28;1136;-87
2021/08/14 09:28:45;;;;;;;;;;;;;;;;;;5086848;28;1546;-87
2021/08/14 09:31:11;;;;;;;;;;;;;;;;;;5091231;28;1152;-87
2021/08/14 09:33:36;;;;;;;;;;;;;;;;;;5090261;28;1957;-86
2021/08/14 09:36:01;;;;;;;;;;;;;;;;;;5089912;28;1567;-87
2021/08/14 09:38:47;;;;;;;;;;;;;;;;;;5088412;28;1384;-86
2021/08/14 09:41:13;;;;;;;;;;;;;;;;;;5090105;28;1671;-86
2021/08/14 09:43:38;;;;;;;;;;;;;;;;;;5090452;28;1574;-87
2021/08/14 09:46:03;;;;;;;;;;;;;;;;;;5086729;28;1240;-87
2021/08/14 09:48:29;;;;;;;;;;;;;;;;;;5090036;28;1375;-87
2021/08/14 09:50:54;;;;;;;;;;;;;;;;;;5090051;28;1273;-87
2021/08/14 09:53:20;;;;;;;;;;;;;;;;;;5087337;28;1895;-87
2021/08/14 09:55:47;;;;;;;;;;;;;;;;;;5088666;28;1235;-86
2021/08/14 09:58:16;;;;;;;;;;;;;;;;;;5087883;28;1695;-87
2021/08/14 10:00:41;;;;;;;;;;;;;;;;;;5090046;28;1397;-87
2021/08/14 10:03:06;;;;;;;;;;;;;;;;;;5086179;28;1083;-87
2021/08/14 10:05:32;;;;;;;;;;;;;;;;;;5090762;28;1037;-87
2021/08/14 10:07:58;;;;;;;;;;;;;;;;;;5084800;28;1576;-87
2021/08/14 10:10:23;;;;;;;;;;;;;;;;;;5090984;28;1085;-87
2021/08/14 10:12:48;;;;;;;;;;;;;;;;;;5070111;28;1906;-86
2021/08/14 10:15:13;;;;;;;;;;;;;;;;;;5085623;28;1543;-87
2021/08/14 10:17:39;;;;;;;;;;;;;;;;;;5102660;28;1315;-87
2021/08/14 10:20:05;;;;;;;;;;;;;;;;;;5087010;28;1033;-87
2021/08/14 10:22:30;;;;;;;;;;;;;;;;;;5089939;28;1460;-87
2021/08/14 10:24:55;;;;;;;;;;;;;;;;;;5089399;28;1661;-87
2021/08/14 10:27:21;;;;;;;;;;;;;;;;;;5088238;28;1561;-87
2021/08/14 10:29:53;;;;;;;;;;;;;;;;;;5084986;28;1425;-87
2021/08/14 10:32:31;;;;;;;;;;;;;;;;;;5089619;28;1913;-87
2021/08/14 10:35:12;;;;;;;;;;;;;;;;;;5089836;28;1381;-87
2021/08/14 10:37:38;;;;;;;;;;;;;;;;;;5089321;28;1641;-87
2021/08/14 10:40:03;;;;;;;;;;;;;;;;;;5086158;28;1523;-87
2021/08/14 10:42:47;;;;;;;;;;;;;;;;;;5090088;28;1618;-87
2021/08/14 10:45:22;;;;;;;;;;;;;;;;;;5087807;28;1523;-87
2021/08/14 10:47:47;;;;;;;;;;;;;;;;;;5087972;28;1279;-87
2021/08/14 10:50:42;;;;;;;;;;;;;;;;;;5083466;28;1269;-87
2021/08/14 10:53:10;;;;;;;;;;;;;;;;;;5071033;28;1894;-87
2021/08/14 10:55:35;;;;;;;;;;;;;;;;;;5086801;28;1536;-87
2021/08/14 10:58:15;;;;;;;;;;;;;;;;;;5087340;28;2087;-86
2021/08/14 11:00:40;;;;;;;;;;;;;;;;;;5083744;28;1626;-87
2021/08/14 11:03:06;;;;;;;;;;;;;;;;;;5087450;28;1034;-87
2021/08/14 11:05:34;;;;;;;;;;;;;;;;;;5088159;28;1256;-87
2021/08/14 11:08:00;;;;;;;;;;;;;;;;;;5085439;28;1804;-87
2021/08/14 11:10:46;;;;;;;;;;;;;;;;;;5088571;28;1369;-87
2021/08/14 11:13:40;;;;;;;;;;;;;;;;;;5086816;28;1964;-87
2021/08/14 11:16:06;;;;;;;;;;;;;;;;;;5081934;28;1378;-87
2021/08/14 11:18:50;;;;;;;;;;;;;;;;;;5089079;28;1364;-87
2021/08/14 11:21:15;;;;;;;;;;;;;;;;;;5096940;28;2048;-87
2021/08/14 11:23:55;;;;;;;;;;;;;;;;;;5088391;28;1527;-87
2021/08/14 11:26:30;;;;;;;;;;;;;;;;;;5083887;28;1570;-87
2021/08/14 11:28:56;;;;;;;;;;;;;;;;;;5087350;28;1826;-87
2021/08/14 11:31:21;;;;;;;;;;;;;;;;;;5089031;28;1294;-87
2021/08/14 11:33:46;;;;;;;;;;;;;;;;;;5087073;28;1987;-87
2021/08/14 11:36:12;;;;;;;;;;;;;;;;;;5083236;28;1871;-86
2021/08/14 11:38:43;;;;;;;;;;;;;;;;;;5088335;28;1258;-87
2021/08/14 11:41:15;;;;;;;;;;;;;;;;;;5101491;28;1123;-87
2021/08/14 11:43:40;;;;;;;;;;;;;;;;;;5086192;28;1606;-86
2021/08/14 11:46:06;;;;;;;;;;;;;;;;;;5090378;28;1083;-86
2021/08/14 11:48:41;;;;;;;;;;;;;;;;;;5087895;28;1267;-87
2021/08/14 11:51:19;;;;;;;;;;;;;;;;;;5086399;28;1566;-87
2021/08/14 11:53:44;;;;;;;;;;;;;;;;;;5088477;28;1914;-87
2021/08/14 11:56:11;;;;;;;;;;;;;;;;;;5086027;28;1105;-87
2021/08/14 11:58:36;;;;;;;;;;;;;;;;;;5086829;28;1582;-87
2021/08/14 12:01:01;;;;;;;;;;;;;;;;;;5089146;28;1472;-86
2021/08/14 12:03:27;;;;;;;;;;;;;;;;;;5092132;28;1191;-86
2021/08/14 12:05:52;;;;;;;;;;;;;;;;;;5091383;28;1310;-87
2021/08/14 12:08:31;;;;;;;;;;;;;;;;;;5088539;28;1555;-87
2021/08/14 12:10:57;;;;;;;;;;;;;;;;;;5089411;28;1317;-87
2021/08/14 12:13:22;;;;;;;;;;;;;;;;;;5107730;28;1980;-87
2021/08/14 12:15:48;;;;;;;;;;;;;;;;;;5090756;28;1229;-87
2021/08/14 12:18:13;;;;;;;;;;;;;;;;;;5093284;28;1361;-87
2021/08/14 12:20:39;;;;;;;;;;;;;;;;;;5089998;28;1577;-87
2021/08/14 12:23:23;;;;;;;;;;;;;;;;;;5087553;28;1252;-87
2021/08/14 12:26:03;;;;;;;;;;;;;;;;;;5091323;28;1499;-87
2021/08/14 12:28:28;;;;;;;;;;;;;;;;;;5090049;28;1586;-87
2021/08/14 12:30:54;;;;;;;;;;;;;;;;;;5087457;28;1553;-87
2021/08/14 12:33:26;;;;;;;;;;;;;;;;;;5093498;28;1906;-87
2021/08/14 12:35:58;;;;;;;;;;;;;;;;;;5091123;28;1085;-87
2021/08/14 12:38:23;;;;;;;;;;;;;;;;;;5092539;28;1372;-87
2021/08/14 12:40:48;;;;;;;;;;;;;;;;;;5090356;28;1789;-88
2021/08/14 12:43:14;;;;;;;;;;;;;;;;;;5091983;28;1535;-87
2021/08/14 12:45:39;;;;;;;;;;;;;;;;;;5091498;28;1124;-87
2021/08/14 12:48:10;;;;;;;;;;;;;;;;;;5093658;28;1242;-87
2021/08/14 12:50:36;;;;;;;;;;;;;;;;;;5088361;28;1973;-87
2021/08/14 12:53:05;;;;;;;;;;;;;;;;;;5087472;28;1977;-87
2021/08/14 12:55:32;;;;;;;;;;;;;;;;;;5093099;28;1100;-87
2021/08/14 12:57:58;;;;;;;;;;;;;;;;;;5090013;28;1727;-87
2021/08/14 13:00:23;;;;;;;;;;;;;;;;;;5092824;28;993;-86
2021/08/14 13:02:49;;;;;;;;;;;;;;;;;;5092391;28;1151;-87
2021/08/14 13:05:14;;;;;;;;;;;;;;;;;;5091967;28;1297;-87
2021/08/14 13:07:39;;;;;;;;;;;;;;;;;;5088056;28;1632;-86
2021/08/14 13:10:05;;;;;;;;;;;;;;;;;;5088722;28;988;-86
2021/08/14 13:15:03;;;;;;;;;;;;;;;;;;5069220;28;1720;-49
2021/08/14 13:17:28;;;;;;;;;;;;;;;;;;5071656;28;1160;-49
2021/08/14 13:19:53;;;;;;;;;;;;;;;;;;5071641;28;1104;-49
2021/08/14 13:22:18;;;;;;;;;;;;;;;;;;5069768;28;1186;-49
2021/08/14 13:24:44;;;;;;;;;;;;;;;;;;5069962;28;2165;-49
2021/08/14 13:27:09;;;;;;;;;;;;;;;;;;5096642;22;1886;-53
2021/08/14 13:29:34;;;;;;;;;;;;;;;;;;5069305;28;1144;-50
2021/08/14 13:31:59;;;;;;;;;;;;;;;;;;5068997;28;1918;-52
2021/08/14 13:34:24;;;;;;;;;;;;;;;;;;5069887;28;1455;-53
2021/08/14 13:36:49;;;;;;;;;;;;;;;;;;5069761;28;1654;-51
2021/08/14 13:39:15;;;;;;;;;;;;;;;;;;5070759;28;1502;-51
2021/08/14 13:41:40;;;;;;;;;;;;;;;;;;5071974;28;1106;-52
2021/08/14 13:44:06;;;;;;;;;;;;;;;;;;5073975;28;1892;-52
2021/08/14 13:46:32;;;;;;;;;;;;;;;;;;5071739;28;1360;-50
2021/08/14 13:48:57;;;;;;;;;;;;;;;;;;5071398;28;1242;-51
2021/08/14 13:51:22;;;;;;;;;;;;;;;;;;5072409;28;1622;-52
2021/08/14 13:53:47;;;;;;;;;;;;;;;;;;5070744;28;2280;-53
2021/08/14 13:56:12;;;;;;;;;;;;;;;;;;5072070;28;1149;-52
2021/08/14 13:58:38;;;;;;;;;;;;;;;;;;5072585;28;1634;-51
2021/08/14 14:01:03;;;;;;;;;;;;;;;;;;5071981;28;1089;-52
2021/08/14 14:03:28;;;;;;;;;;;;;;;;;;5070814;28;1208;-53
2021/08/14 14:05:53;;;;;;;;;;;;;;;;;;5069324;28;1506;-52
2021/08/14 14:08:18;;;;;;;;;;;;;;;;;;5070789;28;1353;-52
2021/08/14 14:10:43;;;;;;;;;;;;;;;;;;5070582;28;1085;-52
2021/08/14 14:13:09;;;;;;;;;;;;;;;;;;5072645;28;1957;-51
2021/08/14 14:15:34;;;;;;;;;;;;;;;;;;5070596;28;1256;-52
2021/08/14 14:17:59;;;;;;;;;;;;;;;;;;5069828;28;1362;-51
2021/08/14 14:20:24;;;;;;;;;;;;;;;;;;5070632;28;1298;-52
2021/08/14 14:22:50;;;;;;;;;;;;;;;;;;5070299;28;1543;-52
2021/08/14 14:25:16;;;;;;;;;;;;;;;;;;5066348;28;1557;-52
2021/08/14 14:27:41;;;;;;;;;;;;;;;;;;5070054;28;1602;-52
2021/08/14 14:30:10;;;;;;;;;;;;;;;;;;5070521;28;1155;-52
2021/08/14 14:32:36;;;;;;;;;;;;;;;;;;5069147;28;1977;-52
2021/08/14 14:35:01;;;;;;;;;;;;;;;;;;5072046;28;1305;-52
2021/08/14 14:37:26;;;;;;;;;;;;;;;;;;5070160;28;1555;-52
2021/08/14 14:39:51;;;;;;;;;;;;;;;;;;5069613;28;1124;-51
2021/08/14 14:42:16;;;;;;;;;;;;;;;;;;5070028;28;1617;-52
2021/08/14 14:44:41;;;;;;;;;;;;;;;;;;5069735;28;1598;-52
2021/08/14 14:47:07;;;;;;;;;;;;;;;;;;5069043;28;1290;-51
2021/08/14 14:49:33;;;;;;;;;;;;;;;;;;5068797;28;1526;-51
2021/08/14 14:51:58;;;;;;;;;;;;;;;;;;5068866;28;1910;-52
2021/08/14 14:54:23;;;;;;;;;;;;;;;;;;5069338;28;1117;-52
2021/08/14 14:56:48;;;;;;;;;;;;;;;;;;5070733;28;1589;-52
2021/08/14 14:59:14;;;;;;;;;;;;;;;;;;5070277;28;1188;-51
2021/08/14 15:01:39;;;;;;;;;;;;;;;;;;5070061;28;1177;-52
2021/08/14 15:04:04;;;;;;;;;;;;;;;;;;5069927;28;1434;-52
2021/08/14 15:06:29;;;;;;;;;;;;;;;;;;5066038;28;1570;-52
2021/08/14 15:08:54;;;;;;;;;;;;;;;;;;5069176;28;1396;-52
2021/08/14 15:11:20;;;;;;;;;;;;;;;;;;5066385;28;1318;-52
2021/08/14 15:13:45;;;;;;;;;;;;;;;;;;5067182;28;1967;-52
2021/08/14 15:16:10;;;;;;;;;;;;;;;;;;5068576;28;1585;-52
2021/08/14 15:18:35;;;;;;;;;;;;;;;;;;5068740;28;1795;-52
2021/08/14 15:21:01;;;;;;;;;;;;;;;;;;5063287;28;1165;-51
2021/08/14 15:23:26;;;;;;;;;;;;;;;;;;5068155;28;1334;-53
2021/08/14 15:25:51;;;;;;;;;;;;;;;;;;5069406;28;1563;-52
2021/08/14 15:28:19;;;;;;;;;;;;;;;;;;5067245;28;1649;-52
2021/08/14 15:30:45;;;;;;;;;;;;;;;;;;5069629;28;1113;-51
2021/08/14 15:33:11;;;;;;;;;;;;;;;;;;5069158;28;1910;-52
2021/08/14 15:35:37;;;;;;;;;;;;;;;;;;5070490;28;1595;-52
2021/08/14 15:38:02;;;;;;;;;;;;;;;;;;5068868;28;1551;-52
2021/08/14 15:40:27;;;;;;;;;;;;;;;;;;5069815;28;1152;-52
2021/08/14 15:42:52;;;;;;;;;;;;;;;;;;5071292;28;1750;-52
2021/08/14 15:45:17;;;;;;;;;;;;;;;;;;5069311;28;1536;-51
2021/08/14 15:47:46;;;;;;;;;;;;;;;;;;5068852;28;1328;-52
2021/08/14 15:50:12;;;;;;;;;;;;;;;;;;5070139;28;1140;-51
2021/08/14 15:52:37;;;;;;;;;;;;;;;;;;5069432;28;1930;-50
2021/08/14 15:55:02;;;;;;;;;;;;;;;;;;5068675;28;1364;-52
2021/08/14 15:57:27;;;;;;;;;;;;;;;;;;5069104;28;1530;-51
2021/08/14 15:59:52;;;;;;;;;;;;;;;;;;5067976;28;1365;-52
2021/08/14 16:02:18;;;;;;;;;;;;;;;;;;5068710;28;1137;-53
2021/08/14 16:04:45;;;;;;;;;;;;;;;;;;5069203;28;1282;-49
2021/08/14 16:07:10;;;;;;;;;;;;;;;;;;5069446;28;1586;-51
2021/08/14 16:09:35;;;;;;;;;;;;;;;;;;5069179;28;1173;-52
2021/08/14 16:12:00;;;;;;;;;;;;;;;;;;5070738;28;1890;-52
2021/08/14 16:14:25;;;;;;;;;;;;;;;;;;5066665;28;1604;-52
2021/08/14 16:16:51;;;;;;;;;;;;;;;;;;5067287;28;1416;-52
2021/08/14 16:19:16;;;;;;;;;;;;;;;;;;5068225;28;1387;-51
2021/08/14 16:21:41;;;;;;;;;;;;;;;;;;5070568;28;1582;-52
2021/08/14 16:24:07;;;;;;;;;;;;;;;;;;5068164;28;1409;-52
2021/08/14 16:26:32;;;;;;;;;;;;;;;;;;5069361;28;1319;-52
2021/08/14 16:28:57;;;;;;;;;;;;;;;;;;5069503;28;1827;-52
2021/08/14 16:31:22;;;;;;;;;;;;;;;;;;5069453;28;1172;-52
2021/08/14 16:33:48;;;;;;;;;;;;;;;;;;5068550;28;2030;-51
2021/08/14 16:36:13;;;;;;;;;;;;;;;;;;5069529;28;1279;-52
2021/08/14 16:38:38;;;;;;;;;;;;;;;;;;5069588;28;1551;-51
2021/08/14 16:41:03;;;;;;;;;;;;;;;;;;5069200;28;1188;-52
2021/08/14 16:43:28;;;;;;;;;;;;;;;;;;5051143;28;1623;-52
2021/08/14 16:45:53;;;;;;;;;;;;;;;;;;5069156;28;1113;-52
2021/08/14 16:48:19;;;;;;;;;;;;;;;;;;5070682;28;1694;-52
2021/08/14 16:50:44;;;;;;;;;;;;;;;;;;5072492;28;1697;-51
2021/08/14 16:53:09;;;;;;;;;;;;;;;;;;5071999;28;1957;-52
2021/08/14 16:55:35;;;;;;;;;;;;;;;;;;5072899;28;1144;-52
2021/08/14 16:58:00;;;;;;;;;;;;;;;;;;5072035;28;1609;-52